Omura, Japan
Current Conditions -  °F | °C
As of 6:30 AM on Tuesday 25 Nov 2014 (Local Time) from RJFU Reporting Station
Rain Showers Rain Showers  
Wind Chill: 63°   Ceiling: 3000
Heat Index: 63°   Visibility: 6mi
Dew Point: 63°   Wind: 7mph
Humidity: 100%   Direction: 350°N
Pressure: 29.8"   Gusts: NA
Location:  32.91°N, 129.95°E
Report Text: RJFU 242130Z 35006KT 9999 -SHRA FEW004 SCT015 BKN030 17/17 Q1009 RMK 2ST004 3CU015 6CU030 A2979
Loading
Personal Weather Stations






























Interactive Weather Map New forecast layout! Learn more

10-Day Weather Forecast

Advertisements
Track Severe Weather on mobile